Current Weather

Nellis Afb

Las Vegas, Nevada (KLSV)

Report from: Thursday, July 18, 2024 5:55 AM PDT
Current time: Thursday, July 18, 2024 7:00 AM PDT

Nearby weather – Weather history – Daily summaries
Weather forecast

Temperature31.8°C (89.2°F)
Heat index30.3°C (86.5°F)
Dew point10.5°C (50.9°F)
Winds 3 kts (1.5 m/s, 3.5 mph) East-Northeast (70°)
Visibility10 mi. (16.1 km)
Clouds Ceiling: Broken clouds 19,000 ft. (5,791 m)
Altimeter29.88 in.Hg (1012 mB)
Relative humidity27 %
Density altitude2,259 ft. (688 m)
Sea-level pressure100.9 kPa (1009 mB, 29.78 in.Hg)
Remarks Fully automated report
System requires maintenance
Automated weather observing station with precipitation discriminator
Flight conditions Visual Meteorological Conditions
Raw dataKLSV 181255Z AUTO 07003KT 10SM BKN190 32/11 A2988 RMK AO2 SLP085 T03180105 $
An error has occurred. This application may no longer respond until reloaded. Reload 🗙